sensor_id;sensor_type;location;lat;lon;timestamp;temperature;humidity
18291;DHT22;9271;48.590;8.866;2023-12-20T00:01:07;8.20;99.90
18291;DHT22;9271;48.590;8.866;2023-12-20T00:03:34;8.20;99.90
18291;DHT22;9271;48.590;8.866;2023-12-20T00:06:00;8.40;99.90
18291;DHT22;9271;48.590;8.866;2023-12-20T00:08:27;8.50;99.90
18291;DHT22;9271;48.590;8.866;2023-12-20T00:10:54;8.50;99.90
18291;DHT22;9271;48.590;8.866;2023-12-20T00:13:22;8.70;99.90
18291;DHT22;9271;48.590;8.866;2023-12-20T00:15:48;8.40;99.90
18291;DHT22;9271;48.590;8.866;2023-12-20T00:18:15;8.40;99.90
18291;DHT22;9271;48.590;8.866;2023-12-20T00:20:42;8.60;99.90
18291;DHT22;9271;48.590;8.866;2023-12-20T00:23:08;8.50;99.90
18291;DHT22;9271;48.590;8.866;2023-12-20T00:25:35;8.50;99.90
18291;DHT22;9271;48.590;8.866;2023-12-20T00:28:02;8.40;99.90
18291;DHT22;9271;48.590;8.866;2023-12-20T00:30:30;8.20;99.90
18291;DHT22;9271;48.590;8.866;2023-12-20T00:32:57;8.30;99.90
18291;DHT22;9271;48.590;8.866;2023-12-20T00:35:24;8.40;99.90
18291;DHT22;9271;48.590;8.866;2023-12-20T00:37:50;8.30;99.90
18291;DHT22;9271;48.590;8.866;2023-12-20T00:40:17;7.90;99.90
18291;DHT22;9271;48.590;8.866;2023-12-20T00:42:43;7.70;99.90
18291;DHT22;9271;48.590;8.866;2023-12-20T00:45:12;7.60;99.90
18291;DHT22;9271;48.590;8.866;2023-12-20T00:47:41;7.50;99.90
18291;DHT22;9271;48.590;8.866;2023-12-20T00:50:08;7.70;99.90
18291;DHT22;9271;48.590;8.866;2023-12-20T00:52:35;7.70;99.90
18291;DHT22;9271;48.590;8.866;2023-12-20T00:55:02;7.60;99.90
18291;DHT22;9271;48.590;8.866;2023-12-20T00:57:29;7.40;99.90
18291;DHT22;9271;48.590;8.866;2023-12-20T00:59:56;7.60;99.90
18291;DHT22;9271;48.590;8.866;2023-12-20T01:02:23;7.70;99.90
18291;DHT22;9271;48.590;8.866;2023-12-20T01:04:51;7.70;99.90
18291;DHT22;9271;48.590;8.866;2023-12-20T01:07:17;7.60;99.90
18291;DHT22;9271;48.590;8.866;2023-12-20T01:09:44;7.60;99.90
18291;DHT22;9271;48.590;8.866;2023-12-20T01:12:11;7.90;99.90
18291;DHT22;9271;48.590;8.866;2023-12-20T01:14:37;8.00;99.90
18291;DHT22;9271;48.590;8.866;2023-12-20T01:17:05;7.80;99.90
18291;DHT22;9271;48.590;8.866;2023-12-20T01:19:31;7.90;99.90
18291;DHT22;9271;48.590;8.866;2023-12-20T01:21:59;8.00;99.90
18291;DHT22;9271;48.590;8.866;2023-12-20T01:24:26;7.80;99.90
18291;DHT22;9271;48.590;8.866;2023-12-20T01:26:52;7.90;99.90
18291;DHT22;9271;48.590;8.866;2023-12-20T01:29:19;8.20;99.90
18291;DHT22;9271;48.590;8.866;2023-12-20T01:31:46;8.20;99.90
18291;DHT22;9271;48.590;8.866;2023-12-20T01:34:13;8.30;99.90
18291;DHT22;9271;48.590;8.866;2023-12-20T01:36:39;8.50;99.90
18291;DHT22;9271;48.590;8.866;2023-12-20T01:39:07;8.60;99.90
18291;DHT22;9271;48.590;8.866;2023-12-20T01:41:34;8.60;99.90
18291;DHT22;9271;48.590;8.866;2023-12-20T01:44:00;8.50;99.90
18291;DHT22;9271;48.590;8.866;2023-12-20T01:46:27;8.40;99.90
18291;DHT22;9271;48.590;8.866;2023-12-20T01:48:54;8.50;99.90
18291;DHT22;9271;48.590;8.866;2023-12-20T01:51:21;8.50;99.90
18291;DHT22;9271;48.590;8.866;2023-12-20T01:53:48;8.30;99.90
18291;DHT22;9271;48.590;8.866;2023-12-20T01:56:16;8.40;99.90
18291;DHT22;9271;48.590;8.866;2023-12-20T01:58:44;8.10;99.90
18291;DHT22;9271;48.590;8.866;2023-12-20T02:01:12;8.10;99.90
18291;DHT22;9271;48.590;8.866;2023-12-20T02:03:40;8.00;99.90
18291;DHT22;9271;48.590;8.866;2023-12-20T02:06:07;7.70;99.90
18291;DHT22;9271;48.590;8.866;2023-12-20T02:08:35;7.80;99.90
18291;DHT22;9271;48.590;8.866;2023-12-20T02:11:01;8.00;99.90
18291;DHT22;9271;48.590;8.866;2023-12-20T02:13:30;7.80;99.90
18291;DHT22;9271;48.590;8.866;2023-12-20T02:15:57;7.80;99.90
18291;DHT22;9271;48.590;8.866;2023-12-20T02:18:24;8.10;99.90
18291;DHT22;9271;48.590;8.866;2023-12-20T02:20:50;7.80;99.90
18291;DHT22;9271;48.590;8.866;2023-12-20T02:23:18;7.80;99.90
18291;DHT22;9271;48.590;8.866;2023-12-20T02:25:45;7.70;99.90
18291;DHT22;9271;48.590;8.866;2023-12-20T02:28:11;7.60;99.90
18291;DHT22;9271;48.590;8.866;2023-12-20T02:30:38;7.60;99.90
18291;DHT22;9271;48.590;8.866;2023-12-20T02:33:08;7.60;99.90
18291;DHT22;9271;48.590;8.866;2023-12-20T02:35:38;7.40;99.90
18291;DHT22;9271;48.590;8.866;2023-12-20T02:38:04;7.10;99.90
18291;DHT22;9271;48.590;8.866;2023-12-20T02:40:32;7.00;99.90
18291;DHT22;9271;48.590;8.866;2023-12-20T02:42:59;7.50;99.90
18291;DHT22;9271;48.590;8.866;2023-12-20T02:45:26;7.70;99.90
18291;DHT22;9271;48.590;8.866;2023-12-20T02:47:53;7.90;99.90
18291;DHT22;9271;48.590;8.866;2023-12-20T02:50:19;7.90;99.90
18291;DHT22;9271;48.590;8.866;2023-12-20T02:52:46;7.70;99.90
18291;DHT22;9271;48.590;8.866;2023-12-20T02:55:13;7.60;99.90
18291;DHT22;9271;48.590;8.866;2023-12-20T02:57:41;7.90;99.90
18291;DHT22;9271;48.590;8.866;2023-12-20T03:00:08;7.90;99.90
18291;DHT22;9271;48.590;8.866;2023-12-20T03:02:36;7.70;99.90
18291;DHT22;9271;48.590;8.866;2023-12-20T03:05:03;7.80;99.90
18291;DHT22;9271;48.590;8.866;2023-12-20T03:07:30;7.70;99.90
18291;DHT22;9271;48.590;8.866;2023-12-20T03:09:56;7.90;99.90
18291;DHT22;9271;48.590;8.866;2023-12-20T03:12:23;7.90;99.90
18291;DHT22;9271;48.590;8.866;2023-12-20T03:14:51;8.00;99.90
18291;DHT22;9271;48.590;8.866;2023-12-20T03:17:17;7.80;99.90
18291;DHT22;9271;48.590;8.866;2023-12-20T03:19:45;8.00;99.90
18291;DHT22;9271;48.590;8.866;2023-12-20T03:22:11;8.20;99.90
18291;DHT22;9271;48.590;8.866;2023-12-20T03:24:38;8.20;99.90
18291;DHT22;9271;48.590;8.866;2023-12-20T03:27:04;8.20;99.90
18291;DHT22;9271;48.590;8.866;2023-12-20T03:29:31;8.30;99.90
18291;DHT22;9271;48.590;8.866;2023-12-20T03:31:59;8.40;99.90
18291;DHT22;9271;48.590;8.866;2023-12-20T03:34:26;8.40;99.90
18291;DHT22;9271;48.590;8.866;2023-12-20T03:36:54;8.30;99.90
18291;DHT22;9271;48.590;8.866;2023-12-20T03:39:21;8.10;99.90
18291;DHT22;9271;48.590;8.866;2023-12-20T03:41:47;8.10;99.90
18291;DHT22;9271;48.590;8.866;2023-12-20T03:44:14;8.00;99.90
18291;DHT22;9271;48.590;8.866;2023-12-20T03:46:41;8.20;99.90
18291;DHT22;9271;48.590;8.866;2023-12-20T03:49:09;8.40;99.90
18291;DHT22;9271;48.590;8.866;2023-12-20T03:51:35;8.50;99.90
18291;DHT22;9271;48.590;8.866;2023-12-20T03:54:02;8.20;99.90
18291;DHT22;9271;48.590;8.866;2023-12-20T03:56:29;8.10;99.90
18291;DHT22;9271;48.590;8.866;2023-12-20T03:58:55;8.10;99.90
18291;DHT22;9271;48.590;8.866;2023-12-20T04:01:22;8.20;99.90
18291;DHT22;9271;48.590;8.866;2023-12-20T04:03:49;8.20;99.90
18291;DHT22;9271;48.590;8.866;2023-12-20T04:06:18;8.20;99.90
18291;DHT22;9271;48.590;8.866;2023-12-20T04:08:44;8.20;99.90
18291;DHT22;9271;48.590;8.866;2023-12-20T04:11:11;8.10;99.90
18291;DHT22;9271;48.590;8.866;2023-12-20T04:13:38;8.00;99.90
18291;DHT22;9271;48.590;8.866;2023-12-20T04:16:05;8.20;99.90
18291;DHT22;9271;48.590;8.866;2023-12-20T04:18:32;8.10;99.90
18291;DHT22;9271;48.590;8.866;2023-12-20T04:20:58;8.00;99.90
18291;DHT22;9271;48.590;8.866;2023-12-20T04:23:26;7.90;99.90
18291;DHT22;9271;48.590;8.866;2023-12-20T04:25:54;7.80;99.90
18291;DHT22;9271;48.590;8.866;2023-12-20T04:28:20;7.90;99.90
18291;DHT22;9271;48.590;8.866;2023-12-20T04:30:47;8.00;99.90
18291;DHT22;9271;48.590;8.866;2023-12-20T04:33:14;7.90;99.90
18291;DHT22;9271;48.590;8.866;2023-12-20T04:35:40;7.90;99.90
18291;DHT22;9271;48.590;8.866;2023-12-20T04:38:08;7.80;99.90
18291;DHT22;9271;48.590;8.866;2023-12-20T04:40:36;7.90;99.90
18291;DHT22;9271;48.590;8.866;2023-12-20T04:43:03;8.00;99.90
18291;DHT22;9271;48.590;8.866;2023-12-20T04:45:30;7.90;99.90
18291;DHT22;9271;48.590;8.866;2023-12-20T04:47:56;7.80;99.90
18291;DHT22;9271;48.590;8.866;2023-12-20T04:50:23;7.80;99.90
18291;DHT22;9271;48.590;8.866;2023-12-20T04:52:50;8.00;99.90
18291;DHT22;9271;48.590;8.866;2023-12-20T04:55:17;7.90;99.90
18291;DHT22;9271;48.590;8.866;2023-12-20T04:57:45;8.00;99.90
18291;DHT22;9271;48.590;8.866;2023-12-20T05:00:12;8.20;99.90
18291;DHT22;9271;48.590;8.866;2023-12-20T05:02:41;8.30;99.90
18291;DHT22;9271;48.590;8.866;2023-12-20T05:05:08;8.30;99.90
18291;DHT22;9271;48.590;8.866;2023-12-20T05:07:34;8.20;99.90
18291;DHT22;9271;48.590;8.866;2023-12-20T05:10:02;8.20;99.90
18291;DHT22;9271;48.590;8.866;2023-12-20T05:12:29;8.10;99.90
18291;DHT22;9271;48.590;8.866;2023-12-20T05:14:58;8.40;99.90
18291;DHT22;9271;48.590;8.866;2023-12-20T05:17:25;8.30;99.90
18291;DHT22;9271;48.590;8.866;2023-12-20T05:19:52;8.30;99.90
18291;DHT22;9271;48.590;8.866;2023-12-20T05:22:19;8.10;99.90
18291;DHT22;9271;48.590;8.866;2023-12-20T05:24:46;8.20;99.90
18291;DHT22;9271;48.590;8.866;2023-12-20T05:27:12;8.20;99.90
18291;DHT22;9271;48.590;8.866;2023-12-20T05:29:39;8.20;99.90
18291;DHT22;9271;48.590;8.866;2023-12-20T05:32:07;8.20;99.90
18291;DHT22;9271;48.590;8.866;2023-12-20T05:34:34;8.20;99.90
18291;DHT22;9271;48.590;8.866;2023-12-20T05:37:00;8.10;99.90
18291;DHT22;9271;48.590;8.866;2023-12-20T05:39:28;8.20;99.90
18291;DHT22;9271;48.590;8.866;2023-12-20T05:41:56;8.20;99.90
18291;DHT22;9271;48.590;8.866;2023-12-20T05:44:23;8.20;99.90
18291;DHT22;9271;48.590;8.866;2023-12-20T05:46:50;7.90;99.90
18291;DHT22;9271;48.590;8.866;2023-12-20T05:49:18;7.60;99.90
18291;DHT22;9271;48.590;8.866;2023-12-20T05:51:44;7.60;99.90
18291;DHT22;9271;48.590;8.866;2023-12-20T05:54:11;7.70;99.90
18291;DHT22;9271;48.590;8.866;2023-12-20T05:56:38;7.70;99.90
18291;DHT22;9271;48.590;8.866;2023-12-20T05:59:04;7.90;99.90
18291;DHT22;9271;48.590;8.866;2023-12-20T06:01:31;8.00;99.90
18291;DHT22;9271;48.590;8.866;2023-12-20T06:03:58;8.20;99.90
18291;DHT22;9271;48.590;8.866;2023-12-20T06:06:26;8.30;99.90
18291;DHT22;9271;48.590;8.866;2023-12-20T06:08:53;8.40;99.90
18291;DHT22;9271;48.590;8.866;2023-12-20T06:11:20;8.30;99.90
18291;DHT22;9271;48.590;8.866;2023-12-20T06:13:46;8.20;99.90
18291;DHT22;9271;48.590;8.866;2023-12-20T06:16:14;8.30;99.90
18291;DHT22;9271;48.590;8.866;2023-12-20T06:18:41;8.40;99.90
18291;DHT22;9271;48.590;8.866;2023-12-20T06:21:08;8.10;99.90
18291;DHT22;9271;48.590;8.866;2023-12-20T06:23:39;7.90;99.90
18291;DHT22;9271;48.590;8.866;2023-12-20T06:26:06;8.00;99.90
18291;DHT22;9271;48.590;8.866;2023-12-20T06:28:33;7.80;99.90
18291;DHT22;9271;48.590;8.866;2023-12-20T06:30:59;7.70;99.90
18291;DHT22;9271;48.590;8.866;2023-12-20T06:33:27;7.60;99.90
18291;DHT22;9271;48.590;8.866;2023-12-20T06:35:54;7.40;99.90
18291;DHT22;9271;48.590;8.866;2023-12-20T06:38:21;7.00;99.90
18291;DHT22;9271;48.590;8.866;2023-12-20T06:40:49;7.00;99.90
18291;DHT22;9271;48.590;8.866;2023-12-20T06:43:16;6.90;99.90
18291;DHT22;9271;48.590;8.866;2023-12-20T06:45:43;6.90;99.90
18291;DHT22;9271;48.590;8.866;2023-12-20T06:48:09;7.10;99.90
18291;DHT22;9271;48.590;8.866;2023-12-20T06:50:37;7.40;99.90
18291;DHT22;9271;48.590;8.866;2023-12-20T06:53:05;7.70;99.90
18291;DHT22;9271;48.590;8.866;2023-12-20T06:55:32;8.00;99.90
18291;DHT22;9271;48.590;8.866;2023-12-20T06:58:01;7.80;99.90
18291;DHT22;9271;48.590;8.866;2023-12-20T07:00:27;7.80;99.90
18291;DHT22;9271;48.590;8.866;2023-12-20T07:02:54;7.30;99.90
18291;DHT22;9271;48.590;8.866;2023-12-20T07:05:22;7.10;99.90
18291;DHT22;9271;48.590;8.866;2023-12-20T07:07:49;7.50;99.90
18291;DHT22;9271;48.590;8.866;2023-12-20T07:10:15;7.80;99.90
18291;DHT22;9271;48.590;8.866;2023-12-20T07:12:42;7.70;99.90
18291;DHT22;9271;48.590;8.866;2023-12-20T07:15:11;7.60;99.90
18291;DHT22;9271;48.590;8.866;2023-12-20T07:17:38;7.60;99.90
18291;DHT22;9271;48.590;8.866;2023-12-20T07:20:06;7.80;99.90
18291;DHT22;9271;48.590;8.866;2023-12-20T07:22:36;7.90;99.90
18291;DHT22;9271;48.590;8.866;2023-12-20T07:25:04;7.70;99.90
18291;DHT22;9271;48.590;8.866;2023-12-20T07:27:31;7.40;99.90
18291;DHT22;9271;48.590;8.866;2023-12-20T07:29:57;7.50;99.90
18291;DHT22;9271;48.590;8.866;2023-12-20T07:32:26;7.70;99.90
18291;DHT22;9271;48.590;8.866;2023-12-20T07:34:52;7.80;99.90
18291;DHT22;9271;48.590;8.866;2023-12-20T07:37:20;8.00;99.90
18291;DHT22;9271;48.590;8.866;2023-12-20T07:39:47;8.20;99.90
18291;DHT22;9271;48.590;8.866;2023-12-20T07:42:14;8.30;99.90
18291;DHT22;9271;48.590;8.866;2023-12-20T07:44:40;8.40;99.90
18291;DHT22;9271;48.590;8.866;2023-12-20T07:47:07;8.50;99.90
18291;DHT22;9271;48.590;8.866;2023-12-20T07:49:36;8.60;99.90
18291;DHT22;9271;48.590;8.866;2023-12-20T07:52:03;8.70;99.90
18291;DHT22;9271;48.590;8.866;2023-12-20T07:54:30;8.80;99.90
18291;DHT22;9271;48.590;8.866;2023-12-20T07:56:57;8.80;99.90
18291;DHT22;9271;48.590;8.866;2023-12-20T07:59:24;8.60;99.90
18291;DHT22;9271;48.590;8.866;2023-12-20T08:01:51;8.70;99.90
18291;DHT22;9271;48.590;8.866;2023-12-20T08:04:18;8.60;99.90
18291;DHT22;9271;48.590;8.866;2023-12-20T08:06:47;8.60;99.90
18291;DHT22;9271;48.590;8.866;2023-12-20T08:09:14;8.30;99.90
18291;DHT22;9271;48.590;8.866;2023-12-20T08:11:44;8.40;99.90
18291;DHT22;9271;48.590;8.866;2023-12-20T08:14:11;8.50;99.90
18291;DHT22;9271;48.590;8.866;2023-12-20T08:16:38;8.00;99.90
18291;DHT22;9271;48.590;8.866;2023-12-20T08:19:05;7.50;99.90
18291;DHT22;9271;48.590;8.866;2023-12-20T08:21:31;7.60;99.90
18291;DHT22;9271;48.590;8.866;2023-12-20T08:23:59;7.90;99.90
18291;DHT22;9271;48.590;8.866;2023-12-20T08:26:26;8.30;99.90
18291;DHT22;9271;48.590;8.866;2023-12-20T08:28:53;7.90;99.90
18291;DHT22;9271;48.590;8.866;2023-12-20T08:31:20;7.60;99.90
18291;DHT22;9271;48.590;8.866;2023-12-20T08:33:48;7.60;99.90
18291;DHT22;9271;48.590;8.866;2023-12-20T08:36:15;7.90;99.90
18291;DHT22;9271;48.590;8.866;2023-12-20T08:38:43;8.10;99.90
18291;DHT22;9271;48.590;8.866;2023-12-20T08:41:11;8.10;99.90
18291;DHT22;9271;48.590;8.866;2023-12-20T08:43:37;7.90;99.90
18291;DHT22;9271;48.590;8.866;2023-12-20T08:46:05;7.90;99.90
18291;DHT22;9271;48.590;8.866;2023-12-20T08:48:32;7.60;99.90
18291;DHT22;9271;48.590;8.866;2023-12-20T08:50:59;7.50;99.90
18291;DHT22;9271;48.590;8.866;2023-12-20T08:53:25;7.70;99.90
18291;DHT22;9271;48.590;8.866;2023-12-20T08:55:52;7.80;99.90
18291;DHT22;9271;48.590;8.866;2023-12-20T08:58:20;7.90;99.90
18291;DHT22;9271;48.590;8.866;2023-12-20T09:00:47;7.70;99.90
18291;DHT22;9271;48.590;8.866;2023-12-20T09:03:13;7.30;99.90
18291;DHT22;9271;48.590;8.866;2023-12-20T09:05:40;7.40;99.90
18291;DHT22;9271;48.590;8.866;2023-12-20T09:08:07;7.70;99.90
18291;DHT22;9271;48.590;8.866;2023-12-20T09:10:35;7.50;99.90
18291;DHT22;9271;48.590;8.866;2023-12-20T09:13:02;7.40;99.90
18291;DHT22;9271;48.590;8.866;2023-12-20T09:15:30;7.40;99.90
18291;DHT22;9271;48.590;8.866;2023-12-20T09:17:59;7.40;99.90
18291;DHT22;9271;48.590;8.866;2023-12-20T09:20:26;7.20;99.90
18291;DHT22;9271;48.590;8.866;2023-12-20T09:22:53;7.30;99.90
18291;DHT22;9271;48.590;8.866;2023-12-20T09:25:19;7.40;99.90
18291;DHT22;9271;48.590;8.866;2023-12-20T09:27:47;7.50;99.90
18291;DHT22;9271;48.590;8.866;2023-12-20T09:30:14;7.70;99.90
18291;DHT22;9271;48.590;8.866;2023-12-20T09:32:42;8.30;99.90
18291;DHT22;9271;48.590;8.866;2023-12-20T09:35:09;9.50;99.90
18291;DHT22;9271;48.590;8.866;2023-12-20T09:37:35;10.60;99.90
18291;DHT22;9271;48.590;8.866;2023-12-20T09:40:02;11.60;98.10
18291;DHT22;9271;48.590;8.866;2023-12-20T09:42:33;12.50;97.40
18291;DHT22;9271;48.590;8.866;2023-12-20T09:45:08;13.00;94.30
18291;DHT22;9271;48.590;8.866;2023-12-20T09:47:35;12.50;94.70
18291;DHT22;9271;48.590;8.866;2023-12-20T09:50:04;12.40;95.30
18291;DHT22;9271;48.590;8.866;2023-12-20T09:52:32;13.50;93.50
18291;DHT22;9271;48.590;8.866;2023-12-20T09:55:01;13.50;92.70
18291;DHT22;9271;48.590;8.866;2023-12-20T09:57:29;13.10;92.00
18291;DHT22;9271;48.590;8.866;2023-12-20T09:59:56;12.70;92.80
18291;DHT22;9271;48.590;8.866;2023-12-20T10:02:25;12.20;93.40
18291;DHT22;9271;48.590;8.866;2023-12-20T10:04:54;12.50;92.90
18291;DHT22;9271;48.590;8.866;2023-12-20T10:07:22;12.00;92.20
18291;DHT22;9271;48.590;8.866;2023-12-20T10:09:49;11.50;93.50
18291;DHT22;9271;48.590;8.866;2023-12-20T10:12:17;11.40;92.20
18291;DHT22;9271;48.590;8.866;2023-12-20T10:14:44;10.20;94.80
18291;DHT22;9271;48.590;8.866;2023-12-20T10:17:11;10.60;95.80
18291;DHT22;9271;48.590;8.866;2023-12-20T10:19:38;10.80;94.70
18291;DHT22;9271;48.590;8.866;2023-12-20T10:22:05;11.30;94.00
18291;DHT22;9271;48.590;8.866;2023-12-20T10:24:33;12.90;93.00
18291;DHT22;9271;48.590;8.866;2023-12-20T10:27:04;15.10;88.90
18291;DHT22;9271;48.590;8.866;2023-12-20T10:29:34;16.60;88.30
18291;DHT22;9271;48.590;8.866;2023-12-20T10:32:22;18.00;80.70
18291;DHT22;9271;48.590;8.866;2023-12-20T10:34:49;21.00;67.90
18291;DHT22;9271;48.590;8.866;2023-12-20T10:37:16;19.70;58.90
18291;DHT22;9271;48.590;8.866;2023-12-20T10:39:48;18.20;63.40
18291;DHT22;9271;48.590;8.866;2023-12-20T10:42:16;20.30;63.30
18291;DHT22;9271;48.590;8.866;2023-12-20T10:44:43;21.00;58.40
18291;DHT22;9271;48.590;8.866;2023-12-20T10:47:11;19.30;57.80
18291;DHT22;9271;48.590;8.866;2023-12-20T10:49:40;17.30;61.50
18291;DHT22;9271;48.590;8.866;2023-12-20T10:52:09;15.00;66.60
18291;DHT22;9271;48.590;8.866;2023-12-20T10:54:38;13.20;72.70
18291;DHT22;9271;48.590;8.866;2023-12-20T10:57:07;12.10;76.30
18291;DHT22;9271;48.590;8.866;2023-12-20T10:59:36;11.30;81.20
18291;DHT22;9271;48.590;8.866;2023-12-20T11:02:04;10.20;83.90
18291;DHT22;9271;48.590;8.866;2023-12-20T11:04:36;10.20;86.00
18291;DHT22;9271;48.590;8.866;2023-12-20T11:07:16;9.50;90.40
18291;DHT22;9271;48.590;8.866;2023-12-20T11:09:49;10.10;90.10
18291;DHT22;9271;48.590;8.866;2023-12-20T11:12:25;13.40;83.50
18291;DHT22;9271;48.590;8.866;2023-12-20T11:14:55;15.70;75.20
18291;DHT22;9271;48.590;8.866;2023-12-20T11:17:27;15.90;69.60
18291;DHT22;9271;48.590;8.866;2023-12-20T11:20:08;13.90;71.60
18291;DHT22;9271;48.590;8.866;2023-12-20T11:22:37;12.40;78.00
18291;DHT22;9271;48.590;8.866;2023-12-20T11:25:09;12.20;78.20
18291;DHT22;9271;48.590;8.866;2023-12-20T11:27:41;11.70;83.40
18291;DHT22;9271;48.590;8.866;2023-12-20T11:30:09;10.70;83.40
18291;DHT22;9271;48.590;8.866;2023-12-20T11:32:37;9.90;87.90
18291;DHT22;9271;48.590;8.866;2023-12-20T11:35:17;9.00;90.00
18291;DHT22;9271;48.590;8.866;2023-12-20T11:37:45;8.90;91.10
18291;DHT22;9271;48.590;8.866;2023-12-20T11:40:15;8.40;91.00
18291;DHT22;9271;48.590;8.866;2023-12-20T11:42:44;8.30;92.50
18291;DHT22;9271;48.590;8.866;2023-12-20T11:45:14;7.80;92.00
18291;DHT22;9271;48.590;8.866;2023-12-20T11:47:43;8.20;93.10
18291;DHT22;9271;48.590;8.866;2023-12-20T11:50:10;8.00;93.00
18291;DHT22;9271;48.590;8.866;2023-12-20T11:52:37;7.70;93.40
18291;DHT22;9271;48.590;8.866;2023-12-20T11:55:05;7.60;93.50
18291;DHT22;9271;48.590;8.866;2023-12-20T11:57:33;7.30;94.30
18291;DHT22;9271;48.590;8.866;2023-12-20T12:00:02;7.40;95.60
18291;DHT22;9271;48.590;8.866;2023-12-20T12:02:30;7.40;95.80
18291;DHT22;9271;48.590;8.866;2023-12-20T12:04:57;7.70;95.10
18291;DHT22;9271;48.590;8.866;2023-12-20T12:07:25;7.70;95.50
18291;DHT22;9271;48.590;8.866;2023-12-20T12:09:52;7.80;95.10
18291;DHT22;9271;48.590;8.866;2023-12-20T12:12:19;7.90;95.70
18291;DHT22;9271;48.590;8.866;2023-12-20T12:14:47;8.10;94.50
18291;DHT22;9271;48.590;8.866;2023-12-20T12:17:16;8.40;94.40
18291;DHT22;9271;48.590;8.866;2023-12-20T12:19:43;8.70;94.60
18291;DHT22;9271;48.590;8.866;2023-12-20T12:22:12;8.60;93.50
18291;DHT22;9271;48.590;8.866;2023-12-20T12:24:40;7.60;94.90
18291;DHT22;9271;48.590;8.866;2023-12-20T12:27:07;7.40;95.80
18291;DHT22;9271;48.590;8.866;2023-12-20T12:29:35;7.40;96.20
18291;DHT22;9271;48.590;8.866;2023-12-20T12:32:05;7.50;95.90
18291;DHT22;9271;48.590;8.866;2023-12-20T12:34:34;7.50;96.20
18291;DHT22;9271;48.590;8.866;2023-12-20T12:37:02;7.70;95.90
18291;DHT22;9271;48.590;8.866;2023-12-20T12:39:30;8.00;95.60
18291;DHT22;9271;48.590;8.866;2023-12-20T12:41:57;8.00;95.30
18291;DHT22;9271;48.590;8.866;2023-12-20T12:44:24;7.70;96.20
18291;DHT22;9271;48.590;8.866;2023-12-20T12:46:52;7.90;96.20
18291;DHT22;9271;48.590;8.866;2023-12-20T12:49:19;7.80;95.90
18291;DHT22;9271;48.590;8.866;2023-12-20T12:51:48;8.30;95.70
18291;DHT22;9271;48.590;8.866;2023-12-20T12:54:15;9.80;94.00
18291;DHT22;9271;48.590;8.866;2023-12-20T12:56:43;10.80;92.10
18291;DHT22;9271;48.590;8.866;2023-12-20T12:59:12;10.80;90.60
18291;DHT22;9271;48.590;8.866;2023-12-20T13:01:39;9.30;92.70
18291;DHT22;9271;48.590;8.866;2023-12-20T13:04:06;8.40;94.20
18291;DHT22;9271;48.590;8.866;2023-12-20T13:06:36;8.40;94.80
18291;DHT22;9271;48.590;8.866;2023-12-20T13:09:04;8.10;95.70
18291;DHT22;9271;48.590;8.866;2023-12-20T13:11:31;8.40;95.00
18291;DHT22;9271;48.590;8.866;2023-12-20T13:13:58;8.40;95.40
18291;DHT22;9271;48.590;8.866;2023-12-20T13:16:25;10.00;93.30
18291;DHT22;9271;48.590;8.866;2023-12-20T13:18:52;10.30;92.20
18291;DHT22;9271;48.590;8.866;2023-12-20T13:21:19;10.80;91.50
18291;DHT22;9271;48.590;8.866;2023-12-20T13:23:46;11.20;90.10
18291;DHT22;9271;48.590;8.866;2023-12-20T13:26:14;12.10;87.70
18291;DHT22;9271;48.590;8.866;2023-12-20T13:28:41;11.10;89.60
18291;DHT22;9271;48.590;8.866;2023-12-20T13:31:07;10.20;90.90
18291;DHT22;9271;48.590;8.866;2023-12-20T13:33:35;10.50;90.80
18291;DHT22;9271;48.590;8.866;2023-12-20T13:36:01;10.40;91.00
18291;DHT22;9271;48.590;8.866;2023-12-20T13:38:28;9.60;92.10
18291;DHT22;9271;48.590;8.866;2023-12-20T13:40:55;9.60;92.30
18291;DHT22;9271;48.590;8.866;2023-12-20T13:43:25;9.30;93.60
18291;DHT22;9271;48.590;8.866;2023-12-20T13:45:51;8.90;93.80
18291;DHT22;9271;48.590;8.866;2023-12-20T13:48:18;8.70;94.10
18291;DHT22;9271;48.590;8.866;2023-12-20T13:50:45;8.40;95.10
18291;DHT22;9271;48.590;8.866;2023-12-20T13:53:12;8.50;94.80
18291;DHT22;9271;48.590;8.866;2023-12-20T13:55:39;8.50;95.00
18291;DHT22;9271;48.590;8.866;2023-12-20T13:58:06;7.90;95.80
18291;DHT22;9271;48.590;8.866;2023-12-20T14:00:34;7.40;96.60
18291;DHT22;9271;48.590;8.866;2023-12-20T14:03:02;7.10;97.40
18291;DHT22;9271;48.590;8.866;2023-12-20T14:05:29;7.10;97.90
18291;DHT22;9271;48.590;8.866;2023-12-20T14:07:57;7.00;98.30
18291;DHT22;9271;48.590;8.866;2023-12-20T14:10:24;6.90;99.20
18291;DHT22;9271;48.590;8.866;2023-12-20T14:12:52;6.80;99.90
18291;DHT22;9271;48.590;8.866;2023-12-20T14:15:18;6.90;99.90
18291;DHT22;9271;48.590;8.866;2023-12-20T14:17:47;7.20;99.90
18291;DHT22;9271;48.590;8.866;2023-12-20T14:20:14;7.30;99.90
18291;DHT22;9271;48.590;8.866;2023-12-20T14:22:41;7.10;99.90
18291;DHT22;9271;48.590;8.866;2023-12-20T14:25:10;6.90;99.90
18291;DHT22;9271;48.590;8.866;2023-12-20T14:27:38;6.80;99.90
18291;DHT22;9271;48.590;8.866;2023-12-20T14:30:06;6.50;99.90
18291;DHT22;9271;48.590;8.866;2023-12-20T14:32:35;6.40;99.90
18291;DHT22;9271;48.590;8.866;2023-12-20T14:35:05;6.50;99.90
18291;DHT22;9271;48.590;8.866;2023-12-20T14:37:34;6.80;99.90
18291;DHT22;9271;48.590;8.866;2023-12-20T14:40:01;6.70;99.90
18291;DHT22;9271;48.590;8.866;2023-12-20T14:42:28;6.70;99.90
18291;DHT22;9271;48.590;8.866;2023-12-20T14:44:55;6.40;99.90
18291;DHT22;9271;48.590;8.866;2023-12-20T14:47:22;6.50;99.90
18291;DHT22;9271;48.590;8.866;2023-12-20T14:49:50;6.30;99.90
18291;DHT22;9271;48.590;8.866;2023-12-20T14:52:19;6.00;99.90
18291;DHT22;9271;48.590;8.866;2023-12-20T14:54:46;5.90;99.90
18291;DHT22;9271;48.590;8.866;2023-12-20T14:57:12;5.80;99.90
18291;DHT22;9271;48.590;8.866;2023-12-20T14:59:39;5.70;99.90
18291;DHT22;9271;48.590;8.866;2023-12-20T15:02:06;5.90;99.90
18291;DHT22;9271;48.590;8.866;2023-12-20T15:04:33;6.10;99.90
18291;DHT22;9271;48.590;8.866;2023-12-20T15:07:00;6.30;99.90
18291;DHT22;9271;48.590;8.866;2023-12-20T15:09:29;6.40;99.90
18291;DHT22;9271;48.590;8.866;2023-12-20T15:11:56;6.60;99.90
18291;DHT22;9271;48.590;8.866;2023-12-20T15:14:23;6.50;99.90
18291;DHT22;9271;48.590;8.866;2023-12-20T15:16:50;6.30;99.90
18291;DHT22;9271;48.590;8.866;2023-12-20T15:19:17;6.40;99.90
18291;DHT22;9271;48.590;8.866;2023-12-20T15:21:44;6.40;99.90
18291;DHT22;9271;48.590;8.866;2023-12-20T15:24:11;6.20;99.90
18291;DHT22;9271;48.590;8.866;2023-12-20T15:26:42;5.70;99.90
18291;DHT22;9271;48.590;8.866;2023-12-20T15:29:09;5.70;99.90
18291;DHT22;9271;48.590;8.866;2023-12-20T15:31:42;5.50;99.90
18291;DHT22;9271;48.590;8.866;2023-12-20T15:34:09;5.50;99.90
18291;DHT22;9271;48.590;8.866;2023-12-20T15:36:36;5.60;99.90
18291;DHT22;9271;48.590;8.866;2023-12-20T15:39:02;5.40;99.90
18291;DHT22;9271;48.590;8.866;2023-12-20T15:41:30;5.30;99.90
18291;DHT22;9271;48.590;8.866;2023-12-20T15:43:58;5.20;99.90
18291;DHT22;9271;48.590;8.866;2023-12-20T15:46:25;5.20;99.90
18291;DHT22;9271;48.590;8.866;2023-12-20T15:48:52;5.40;99.90
18291;DHT22;9271;48.590;8.866;2023-12-20T15:51:21;5.50;99.90
18291;DHT22;9271;48.590;8.866;2023-12-20T15:53:48;5.50;99.90
18291;DHT22;9271;48.590;8.866;2023-12-20T15:56:15;5.50;99.90
18291;DHT22;9271;48.590;8.866;2023-12-20T15:58:42;5.20;99.90
18291;DHT22;9271;48.590;8.866;2023-12-20T16:01:11;5.30;99.90